createdAt,value
2022-09-05T00:15:14.641Z,958.83
2022-09-05T00:31:45.630Z,958.82
2022-09-05T00:46:54.676Z,958.79
2022-09-05T01:01:57.089Z,958.66
2022-09-05T01:16:59.530Z,958.68
2022-09-05T01:32:01.842Z,958.73
2022-09-05T01:47:04.219Z,958.6
2022-09-05T02:02:08.926Z,958.61
2022-09-05T02:17:27.323Z,958.63
2022-09-05T02:32:51.640Z,958.61
2022-09-05T02:47:54.191Z,958.61
2022-09-05T03:02:56.465Z,958.61
2022-09-05T03:18:19.936Z,958.66
2022-09-05T03:33:23.544Z,958.7
2022-09-05T03:48:53.918Z,958.65
2022-09-05T04:08:13.520Z,958.83
2022-09-05T04:23:35.022Z,959.04
2022-09-05T04:38:37.252Z,959.08
2022-09-05T04:53:39.410Z,959.32
2022-09-05T05:08:41.761Z,959.35
2022-09-05T05:23:44.037Z,959.33
2022-09-05T05:38:46.392Z,959.35
2022-09-05T05:53:51.767Z,959.38
2022-09-05T06:12:40.105Z,959.42
2022-09-05T06:30:05.751Z,959.65
2022-09-05T06:45:27.867Z,959.81
2022-09-05T07:00:31.200Z,959.98
2022-09-05T07:15:33.491Z,960.04
2022-09-05T07:30:35.841Z,960.17
2022-09-05T07:45:38.129Z,960.11
2022-09-05T08:00:44.939Z,959.95
2022-09-05T08:16:13.301Z,959.98
2022-09-05T08:31:16.442Z,960.1
2022-09-05T08:46:46.800Z,960.14
2022-09-05T09:02:37.408Z,959.99
2022-09-05T09:17:50.548Z,960.03
2022-09-05T09:32:56.318Z,960
2022-09-05T09:48:01.078Z,959.91
2022-09-05T10:06:20.099Z,960.24
2022-09-05T10:26:01.809Z,960.18
2022-09-05T10:41:20.059Z,960.24
2022-09-05T10:56:26.093Z,960.33
2022-09-05T11:11:35.226Z,960.56
2022-09-05T11:26:37.652Z,960.77
2022-09-05T11:41:39.981Z,960.89
2022-09-05T11:56:45.889Z,960.96
2022-09-05T12:11:48.433Z,961.14
2022-09-05T12:27:38.513Z,961.35
2022-09-05T12:42:54.784Z,961.63
2022-09-05T13:02:57.934Z,961.64
2022-09-05T13:18:13.116Z,961.91
2022-09-05T13:38:05.336Z,962.12
2022-09-05T13:53:28.945Z,962.59
2022-09-05T14:08:38.276Z,962.46
2022-09-05T14:23:40.635Z,962.58
2022-09-05T14:38:43.020Z,962.67
2022-09-05T14:54:01.420Z,962.91
2022-09-05T15:11:24.047Z,960.21
2022-09-05T15:27:22.143Z,962.56
2022-09-05T15:42:24.632Z,963.43
2022-09-05T15:57:27.226Z,963.68
2022-09-05T16:12:30.137Z,963.55
2022-09-05T16:27:32.934Z,963.45
2022-09-05T16:42:46.402Z,963.67
2022-09-05T16:57:50.023Z,963.8
2022-09-05T17:12:53.676Z,963.74
2022-09-05T17:29:24.241Z,963.78
2022-09-05T17:44:40.082Z,963.55
2022-09-05T17:59:44.630Z,963.57
2022-09-05T18:14:50.112Z,963.35
2022-09-05T18:29:57.975Z,963.31
2022-09-05T18:45:01.816Z,963.34
2022-09-05T19:00:04.225Z,963.39
2022-09-05T19:15:06.886Z,963.5
2022-09-05T19:36:44.679Z,963.4
2022-09-05T19:52:21.217Z,963.24
2022-09-05T20:07:23.564Z,962.86
2022-09-05T20:22:48.606Z,962.67
2022-09-05T20:43:19.663Z,963.13
2022-09-05T20:58:37.186Z,962.83
2022-09-05T21:13:51.978Z,962.73
2022-09-05T21:28:55.521Z,962.68
2022-09-05T21:47:33.879Z,962.86
2022-09-05T22:02:48.317Z,962.78
2022-09-05T22:17:50.771Z,962.9
2022-09-05T22:32:52.997Z,962.78
2022-09-05T22:47:55.199Z,962.64
2022-09-05T23:02:57.697Z,962.42
2022-09-05T23:17:59.910Z,962.44
2022-09-05T23:33:02.076Z,962.52
2022-09-05T23:48:04.237Z,962.58
